Time;durP1;ratioP1;P1;durP2;ratioP2;P2;SDS_P1;SDS_P2;PMS_P1;PMS_P2;Temp;Humidity;BMP_temperature;BMP_pressure;BME280_temperature;BME280_humidity;BME280_pressure;Samples;Min_cycle;Max_cycle;Signal;HPM_P1;HPM_P2
2024/01/05 00:01:44;;;;;;;1.97;1.10;;;;;;;4.74;100.00;95666.34;5098748;28;20625;-63
2024/01/05 00:04:12;;;;;;;3.60;1.20;;;;;;;4.76;100.00;95666.19;5087119;28;20754;-59
2024/01/05 00:06:39;;;;;;;1.47;0.97;;;;;;;4.67;100.00;95661.75;5101670;28;20594;-59
2024/01/05 00:09:06;;;;;;;0.70;0.70;;;;;;;4.68;100.00;95663.41;5099561;28;20201;-58
2024/01/05 00:11:32;;;;;;;3.03;1.40;;;;;;;4.72;100.00;95670.03;5112273;28;20247;-58
2024/01/05 00:13:59;;;;;;;2.77;0.87;;;;;;;4.65;100.00;95674.97;5119245;28;20229;-58
2024/01/05 00:16:25;;;;;;;1.07;0.80;;;;;;;4.64;100.00;95670.69;5121455;28;20302;-59
2024/01/05 00:18:52;;;;;;;2.27;0.97;;;;;;;4.71;100.00;95674.44;5123275;28;20268;-59
2024/01/05 00:21:21;;;;;;;1.03;0.90;;;;;;;4.64;100.00;95675.91;5118718;28;20261;-58
2024/01/05 00:23:49;;;;;;;1.33;0.87;;;;;;;4.69;100.00;95668.50;5117947;28;20206;-64
2024/01/05 00:26:18;;;;;;;2.10;1.00;;;;;;;4.61;100.00;95676.19;5109186;28;20181;-60
2024/01/05 00:28:45;;;;;;;0.97;0.90;;;;;;;4.50;100.00;95677.09;5110306;28;20182;-59
2024/01/05 00:31:12;;;;;;;1.10;0.97;;;;;;;4.63;100.00;95674.28;5109176;28;20233;-60
2024/01/05 00:33:40;;;;;;;2.37;0.90;;;;;;;4.73;100.00;95666.47;5109424;28;20312;-59
2024/01/05 00:36:07;;;;;;;1.43;1.17;;;;;;;4.66;100.00;95674.03;5112469;28;20261;-58
2024/01/05 00:38:35;;;;;;;1.10;1.00;;;;;;;4.71;100.00;95678.88;5112351;28;20252;-59
2024/01/05 00:41:02;;;;;;;2.00;1.00;;;;;;;4.71;100.00;95679.69;5104938;28;20236;-59
2024/01/05 00:43:29;;;;;;;1.40;1.23;;;;;;;4.67;100.00;95678.31;5102114;28;20281;-59
2024/01/05 00:45:55;;;;;;;1.67;1.30;;;;;;;4.68;100.00;95674.69;5101212;28;20710;-58
2024/01/05 00:48:22;;;;;;;3.93;1.30;;;;;;;4.70;100.00;95672.81;5101338;28;20301;-59
2024/01/05 00:50:49;;;;;;;2.43;1.23;;;;;;;4.67;100.00;95662.59;5100676;28;20202;-59
2024/01/05 00:53:16;;;;;;;0.77;0.73;;;;;;;4.72;100.00;95668.25;5099352;28;20227;-59
2024/01/05 00:55:44;;;;;;;1.00;0.80;;;;;;;4.56;100.00;95670.53;5098737;28;20284;-59
2024/01/05 00:58:11;;;;;;;1.87;1.10;;;;;;;4.47;100.00;95672.13;5098984;28;20364;-58
2024/01/05 01:00:37;;;;;;;2.63;1.30;;;;;;;4.56;100.00;95674.94;5101154;28;20205;-58
2024/01/05 01:03:04;;;;;;;1.67;1.00;;;;;;;4.65;100.00;95664.50;5100098;28;20234;-60
2024/01/05 01:05:31;;;;;;;1.93;1.20;;;;;;;4.56;100.00;95667.91;5099451;28;20606;-59
2024/01/05 01:07:58;;;;;;;1.30;1.20;;;;;;;4.64;100.00;95667.25;5098566;28;20643;-59
2024/01/05 01:10:24;;;;;;;1.80;1.07;;;;;;;4.55;100.00;95673.25;5098249;28;20210;-59
2024/01/05 01:12:52;;;;;;;2.13;1.20;;;;;;;4.63;100.00;95670.84;5098054;28;20221;-59
2024/01/05 01:15:19;;;;;;;1.60;1.10;;;;;;;4.57;100.00;95681.84;5098674;28;20663;-60
2024/01/05 01:17:46;;;;;;;1.10;1.00;;;;;;;4.64;100.00;95686.38;5097013;28;20202;-59
2024/01/05 01:20:13;;;;;;;2.47;1.23;;;;;;;4.64;100.00;95688.22;5091329;28;20251;-59
2024/01/05 01:22:40;;;;;;;1.17;1.07;;;;;;;4.62;100.00;95683.09;5099709;28;20211;-60
2024/01/05 01:25:08;;;;;;;2.70;1.57;;;;;;;4.59;100.00;95677.28;5099899;28;20208;-59
2024/01/05 01:27:35;;;;;;;2.77;1.20;;;;;;;4.53;100.00;95668.97;5100522;28;20234;-58
2024/01/05 01:30:03;;;;;;;1.10;1.00;;;;;;;4.53;100.00;95662.94;5099978;28;20249;-57
2024/01/05 01:32:30;;;;;;;3.80;1.37;;;;;;;4.54;100.00;95656.72;5091207;28;20549;-59
2024/01/05 01:34:57;;;;;;;1.13;1.03;;;;;;;4.53;100.00;95652.47;5091086;28;20661;-58
2024/01/05 01:37:23;;;;;;;2.27;1.20;;;;;;;4.56;100.00;95649.59;5091501;28;20220;-58
2024/01/05 01:39:50;;;;;;;1.57;1.10;;;;;;;4.51;100.00;95651.75;5073941;28;20713;-57
2024/01/05 01:42:17;;;;;;;1.83;1.20;;;;;;;4.56;100.00;95633.03;5092307;28;20202;-58
2024/01/05 01:44:43;;;;;;;1.00;0.90;;;;;;;4.59;100.00;95632.78;5090165;28;20699;-57
2024/01/05 01:47:12;;;;;;;1.20;1.07;;;;;;;4.55;100.00;95626.13;5090966;28;20653;-58
2024/01/05 01:49:39;;;;;;;3.97;1.30;;;;;;;4.58;100.00;95629.31;5100186;28;20275;-57
2024/01/05 01:52:06;;;;;;;1.43;1.33;;;;;;;4.60;100.00;95624.81;5111094;28;20260;-57
2024/01/05 01:54:33;;;;;;;1.63;1.10;;;;;;;4.54;100.00;95617.44;5113179;28;20657;-57
2024/01/05 01:57:01;;;;;;;2.70;1.87;;;;;;;4.63;100.00;95627.16;5114348;28;20207;-57
2024/01/05 01:59:29;;;;;;;2.37;2.00;;;;;;;4.63;100.00;95627.16;5113824;28;20189;-58
2024/01/05 02:01:57;;;;;;;6.60;2.40;;;;;;;4.65;100.00;95625.22;5103372;28;20284;-58
2024/01/05 02:04:30;;;;;;;2.40;2.10;;;;;;;4.72;100.00;95621.09;5074278;28;20223;-58
2024/01/05 02:06:59;;;;;;;3.07;1.80;;;;;;;4.72;100.00;95631.59;5081707;28;20292;-57
2024/01/05 02:09:25;;;;;;;2.33;2.00;;;;;;;4.76;100.00;95630.38;5064122;28;20209;-58
2024/01/05 02:11:51;;;;;;;3.93;2.07;;;;;;;4.76;100.00;95625.13;5080522;28;20207;-58
2024/01/05 02:14:18;;;;;;;3.17;2.13;;;;;;;4.80;100.00;95628.31;5079961;28;20230;-59
2024/01/05 02:16:44;;;;;;;3.40;2.23;;;;;;;4.86;100.00;95625.97;5080799;28;20202;-60
2024/01/05 02:19:11;;;;;;;2.60;1.80;;;;;;;4.92;100.00;95630.69;5079939;28;20216;-59
2024/01/05 02:21:40;;;;;;;2.40;2.00;;;;;;;4.89;100.00;95632.75;5082047;28;20217;-58
2024/01/05 02:24:08;;;;;;;2.90;2.23;;;;;;;4.92;100.00;95628.06;5081371;28;20198;-60
2024/01/05 02:26:35;;;;;;;3.03;2.27;;;;;;;4.88;100.00;95633.72;5080862;28;20193;-59
2024/01/05 02:29:03;;;;;;;3.10;2.40;;;;;;;4.90;100.00;95631.78;5081924;28;20558;-58
2024/01/05 02:31:30;;;;;;;3.30;1.97;;;;;;;4.95;100.00;95630.44;5084161;28;20194;-60
2024/01/05 02:33:56;;;;;;;1.73;1.63;;;;;;;4.99;100.00;95642.28;5082125;28;20259;-58
2024/01/05 02:36:23;;;;;;;3.43;2.00;;;;;;;5.00;100.00;95624.78;5084416;28;20285;-58
2024/01/05 02:38:49;;;;;;;4.43;2.17;;;;;;;5.00;100.00;95628.22;5086044;28;20247;-56
2024/01/05 02:41:17;;;;;;;3.10;1.90;;;;;;;5.03;100.00;95625.34;5083433;28;20610;-57
2024/01/05 02:43:44;;;;;;;2.70;2.13;;;;;;;5.01;100.00;95623.81;5088683;28;20237;-58
2024/01/05 02:46:10;;;;;;;2.50;2.23;;;;;;;5.11;100.00;95626.47;5089310;28;20296;-58
2024/01/05 02:48:37;;;;;;;2.50;1.97;;;;;;;5.14;100.00;95613.91;5086315;28;20281;-60
2024/01/05 02:51:04;;;;;;;2.60;2.10;;;;;;;5.19;100.00;95616.13;5086601;28;20321;-59
2024/01/05 02:53:30;;;;;;;3.70;2.13;;;;;;;5.22;100.00;95602.75;5086356;28;20271;-58
2024/01/05 02:55:57;;;;;;;2.13;1.87;;;;;;;5.14;100.00;95587.72;5086894;28;20193;-59
2024/01/05 02:58:25;;;;;;;3.13;2.40;;;;;;;5.23;100.00;95583.47;5088437;28;20278;-59
2024/01/05 03:00:52;;;;;;;4.90;2.10;;;;;;;5.22;100.00;95580.00;5086080;28;20203;-59
2024/01/05 03:03:19;;;;;;;2.63;2.27;;;;;;;5.22;100.00;95577.38;5107139;27;20238;-60
2024/01/05 03:05:45;;;;;;;4.17;2.43;;;;;;;5.29;100.00;95573.25;5133660;27;20303;-59
2024/01/05 03:08:13;;;;;;;2.43;2.20;;;;;;;5.29;100.00;95564.56;5127796;27;20225;-59
2024/01/05 03:10:40;;;;;;;2.97;2.40;;;;;;;5.33;100.00;95571.19;5131764;27;20215;-61
2024/01/05 03:13:06;;;;;;;2.60;2.13;;;;;;;5.30;100.00;95571.47;5131595;27;20246;-59
2024/01/05 03:15:34;;;;;;;2.80;2.17;;;;;;;5.30;100.00;95567.06;5130179;27;20280;-58
2024/01/05 03:18:01;;;;;;;3.00;2.30;;;;;;;5.37;100.00;95568.16;5127458;27;20196;-58
2024/01/05 03:20:28;;;;;;;2.50;2.30;;;;;;;5.36;100.00;95560.41;5128372;27;20291;-57
2024/01/05 03:22:55;;;;;;;3.63;2.20;;;;;;;5.34;100.00;95554.50;5122278;27;20201;-59
2024/01/05 03:25:22;;;;;;;2.93;2.20;;;;;;;5.39;100.00;95549.66;5123686;27;20208;-58
2024/01/05 03:27:48;;;;;;;4.33;2.47;;;;;;;5.28;100.00;95542.75;5123974;27;20712;-57
2024/01/05 03:30:16;;;;;;;2.17;1.97;;;;;;;5.34;100.00;95531.75;5116129;27;20209;-56
2024/01/05 03:32:47;;;;;;;2.97;2.43;;;;;;;5.30;100.00;95529.53;5105858;28;20236;-57
2024/01/05 03:35:14;;;;;;;3.53;2.33;;;;;;;5.30;100.00;95534.78;5105772;28;20240;-57
2024/01/05 03:37:42;;;;;;;2.90;2.17;;;;;;;5.23;100.00;95544.97;5105972;28;20318;-58
2024/01/05 03:40:09;;;;;;;4.77;2.80;;;;;;;5.24;100.00;95536.16;5105642;28;20208;-57
2024/01/05 03:42:36;;;;;;;3.53;2.60;;;;;;;5.31;100.00;95531.19;5107278;28;20549;-58
2024/01/05 03:45:03;;;;;;;2.60;2.40;;;;;;;5.28;100.00;95518.38;5106876;28;20193;-57
2024/01/05 03:47:31;;;;;;;2.73;2.20;;;;;;;5.32;100.00;95517.09;5104689;28;20699;-57
2024/01/05 03:49:58;;;;;;;4.87;2.67;;;;;;;5.26;100.00;95517.66;5105197;28;20194;-57
2024/01/05 03:52:25;;;;;;;3.10;2.57;;;;;;;5.25;100.00;95516.00;5105594;28;20511;-57
2024/01/05 03:54:51;;;;;;;2.97;2.30;;;;;;;5.24;100.00;95519.59;5105942;28;20252;-56
2024/01/05 03:57:18;;;;;;;2.70;2.40;;;;;;;5.30;100.00;95521.66;5107474;28;20600;-56
2024/01/05 03:59:45;;;;;;;2.33;1.83;;;;;;;5.35;100.00;95512.41;5105889;28;20222;-57
2024/01/05 04:02:12;;;;;;;3.83;2.50;;;;;;;5.29;100.00;95496.41;5106260;28;20193;-57
2024/01/05 04:04:39;;;;;;;5.47;2.60;;;;;;;5.31;100.00;95491.88;5083923;28;20358;-57
2024/01/05 04:07:10;;;;;;;4.30;2.50;;;;;;;5.38;100.00;95495.59;5083956;28;20657;-57
2024/01/05 04:09:36;;;;;;;3.37;2.13;;;;;;;5.44;100.00;95495.03;5084692;28;20206;-57
2024/01/05 04:12:03;;;;;;;2.87;2.43;;;;;;;5.42;100.00;95487.28;5083552;28;20202;-57
2024/01/05 04:14:30;;;;;;;2.97;2.67;;;;;;;5.45;100.00;95491.44;5083421;28;20218;-57
2024/01/05 04:16:56;;;;;;;2.57;2.33;;;;;;;5.46;100.00;95485.22;5083820;28;20198;-57
2024/01/05 04:19:23;;;;;;;3.87;2.20;;;;;;;5.51;100.00;95501.38;5083499;28;20287;-57
2024/01/05 04:21:51;;;;;;;3.33;1.90;;;;;;;5.51;100.00;95489.09;5084127;28;20190;-57
2024/01/05 04:24:19;;;;;;;2.80;1.77;;;;;;;5.52;100.00;95487.31;5083575;28;20194;-57
2024/01/05 04:26:46;;;;;;;3.07;1.70;;;;;;;5.53;100.00;95481.06;5083610;28;20287;-58
2024/01/05 04:29:13;;;;;;;3.47;1.83;;;;;;;5.59;100.00;95487.56;5082606;28;20288;-57
2024/01/05 04:31:39;;;;;;;3.30;1.70;;;;;;;5.57;100.00;95484.25;5083596;28;20208;-58
2024/01/05 04:34:06;;;;;;;2.23;1.73;;;;;;;5.58;100.00;95473.63;5083731;28;20224;-58
2024/01/05 04:36:33;;;;;;;2.20;2.00;;;;;;;5.60;100.00;95483.97;5084884;28;20526;-58
2024/01/05 04:38:59;;;;;;;2.50;1.77;;;;;;;5.68;100.00;95486.69;5093183;28;20659;-57
2024/01/05 04:41:29;;;;;;;3.57;1.60;;;;;;;5.65;100.00;95485.19;5087244;28;20237;-58
2024/01/05 04:43:55;;;;;;;2.87;2.37;;;;;;;5.68;100.00;95478.84;5099325;28;20206;-58
2024/01/05 04:46:22;;;;;;;3.23;2.27;;;;;;;5.66;100.00;95471.13;5094267;28;20706;-58
2024/01/05 04:48:48;;;;;;;1.97;1.87;;;;;;;5.66;100.00;95473.75;5075365;28;20301;-58
2024/01/05 04:51:15;;;;;;;2.80;2.10;;;;;;;5.69;100.00;95467.38;5095782;28;20216;-58
2024/01/05 04:53:42;;;;;;;2.33;2.13;;;;;;;5.69;100.00;95473.47;5095539;28;20236;-58
2024/01/05 04:56:08;;;;;;;3.63;2.00;;;;;;;5.67;100.00;95461.47;5100283;28;20202;-58
2024/01/05 04:58:38;;;;;;;2.63;2.03;;;;;;;5.71;100.00;95461.03;5086526;28;20297;-57
2024/01/05 05:01:05;;;;;;;2.77;2.00;;;;;;;5.71;100.00;95471.50;5095360;28;20529;-58
2024/01/05 05:03:32;;;;;;;2.33;2.07;;;;;;;5.69;100.00;95470.84;5095091;28;20638;-57
2024/01/05 05:05:58;;;;;;;3.10;1.90;;;;;;;5.75;100.00;95467.63;5095334;28;20205;-58
2024/01/05 05:08:27;;;;;;;2.90;2.60;;;;;;;5.75;100.00;95465.00;5100640;28;20633;-57
2024/01/05 05:10:54;;;;;;;2.90;2.00;;;;;;;5.72;100.00;95454.81;5095901;28;20292;-57
2024/01/05 05:13:20;;;;;;;2.23;2.00;;;;;;;5.75;100.00;95458.94;5099276;28;20209;-58
2024/01/05 05:15:50;;;;;;;4.03;2.50;;;;;;;5.81;100.00;95467.06;5094953;28;20301;-58
2024/01/05 05:18:17;;;;;;;2.73;2.13;;;;;;;5.83;100.00;95469.56;5090311;28;20532;-56
2024/01/05 05:20:49;;;;;;;5.27;3.00;;;;;;;5.86;100.00;95477.16;5094984;28;20638;-58
2024/01/05 05:23:15;;;;;;;3.97;3.00;;;;;;;5.86;100.00;95466.66;5094396;28;20206;-58
2024/01/05 05:25:42;;;;;;;3.97;2.50;;;;;;;5.84;100.00;95469.44;5094944;28;20289;-58
2024/01/05 05:28:09;;;;;;;3.43;2.10;;;;;;;5.87;100.00;95461.28;5099038;28;20293;-58
2024/01/05 05:30:37;;;;;;;3.63;2.27;;;;;;;5.96;100.00;95457.78;5098356;28;20306;-58
2024/01/05 05:33:05;;;;;;;3.53;2.00;;;;;;;6.06;100.00;95456.94;5104323;28;20273;-59
2024/01/05 05:35:31;;;;;;;5.20;2.00;;;;;;;6.16;100.00;95455.09;5088185;28;20225;-58
2024/01/05 05:37:58;;;;;;;2.50;1.80;;;;;;;6.27;100.00;95447.84;5082859;28;20199;-58
2024/01/05 05:40:25;;;;;;;4.90;2.13;;;;;;;6.40;100.00;95458.03;5082053;28;20717;-57
2024/01/05 05:42:52;;;;;;;3.17;1.57;;;;;;;6.49;100.00;95447.47;5081323;28;20297;-58
2024/01/05 05:45:18;;;;;;;2.47;1.27;;;;;;;6.63;100.00;95459.25;5080655;28;20202;-57
2024/01/05 05:47:45;;;;;;;3.73;1.73;;;;;;;6.76;100.00;95454.50;5081106;28;20198;-59
2024/01/05 05:50:13;;;;;;;1.63;1.20;;;;;;;6.95;100.00;95459.59;5079640;28;20297;-58
2024/01/05 05:52:39;;;;;;;3.90;1.80;;;;;;;7.21;100.00;95449.16;5080137;28;20207;-58
2024/01/05 05:55:12;;;;;;;3.40;1.90;;;;;;;7.31;100.00;95452.53;5080613;28;20233;-59
2024/01/05 05:57:39;;;;;;;3.53;1.63;;;;;;;7.39;100.00;95457.03;5080864;28;20201;-58
2024/01/05 06:00:06;;;;;;;2.77;1.57;;;;;;;7.45;100.00;95467.75;5080566;28;20204;-58
2024/01/05 06:02:35;;;;;;;5.37;1.87;;;;;;;7.51;100.00;95471.56;5081087;28;20202;-58
2024/01/05 06:05:01;;;;;;;3.53;1.97;;;;;;;7.55;100.00;95466.81;5092867;28;20186;-59
2024/01/05 06:07:29;;;;;;;2.20;1.60;;;;;;;7.58;100.00;95467.34;5099144;28;20209;-57
2024/01/05 06:09:56;;;;;;;1.20;1.10;;;;;;;7.59;100.00;95471.63;5099642;28;20216;-58
2024/01/05 06:12:23;;;;;;;2.83;1.70;;;;;;;7.56;100.00;95468.47;5100843;28;20201;-58
2024/01/05 06:14:50;;;;;;;2.27;1.27;;;;;;;7.55;100.00;95469.44;5095337;28;20236;-58
2024/01/05 06:17:17;;;;;;;3.87;1.60;;;;;;;7.49;100.00;95461.22;5098966;28;20251;-58
2024/01/05 06:19:44;;;;;;;2.13;1.50;;;;;;;7.43;100.00;95466.25;5090872;28;20197;-58
2024/01/05 06:22:10;;;;;;;6.40;1.87;;;;;;;7.38;100.00;95474.59;5091224;28;20300;-58
2024/01/05 06:24:38;;;;;;;2.53;1.50;;;;;;;7.33;100.00;95468.16;5090596;28;20206;-57
2024/01/05 06:27:05;;;;;;;2.20;1.80;;;;;;;7.34;100.00;95468.00;5090321;28;20197;-58
2024/01/05 06:29:32;;;;;;;4.37;1.90;;;;;;;7.32;100.00;95466.50;5090063;28;20205;-57
2024/01/05 06:31:58;;;;;;;2.43;2.23;;;;;;;7.15;100.00;95467.34;5084882;28;20292;-58
2024/01/05 06:34:26;;;;;;;1.53;1.30;;;;;;;7.14;100.00;95457.78;5090194;28;20674;-57
2024/01/05 06:36:53;;;;;;;3.67;1.80;;;;;;;7.15;100.00;95454.19;5094909;28;20526;-58
2024/01/05 06:39:21;;;;;;;2.80;2.10;;;;;;;7.06;100.00;95455.09;5077199;28;20198;-58
2024/01/05 06:41:49;;;;;;;3.63;2.20;;;;;;;7.08;100.00;95453.16;5094951;28;20204;-58
2024/01/05 06:44:18;;;;;;;1.90;1.60;;;;;;;7.06;100.00;95452.44;5096835;28;20249;-59
2024/01/05 06:46:45;;;;;;;4.13;1.80;;;;;;;7.03;100.00;95447.50;5104408;28;20208;-58
2024/01/05 06:49:11;;;;;;;2.10;1.90;;;;;;;7.00;100.00;95459.16;5097032;28;20269;-58
2024/01/05 06:51:38;;;;;;;1.77;1.50;;;;;;;7.00;100.00;95457.34;5096745;28;20273;-58
2024/01/05 06:54:04;;;;;;;2.80;1.67;;;;;;;6.95;100.00;95470.09;5094861;28;20210;-58
2024/01/05 06:56:33;;;;;;;3.13;1.50;;;;;;;6.86;100.00;95459.66;5094636;28;20301;-57
2024/01/05 06:59:01;;;;;;;3.93;1.90;;;;;;;6.88;100.00;95469.03;5094204;28;20206;-58
2024/01/05 07:01:28;;;;;;;3.30;1.93;;;;;;;6.84;100.00;95464.22;5094424;28;20205;-58
2024/01/05 07:03:55;;;;;;;2.90;2.00;;;;;;;6.81;100.00;95467.16;5076394;28;20226;-58
2024/01/05 07:06:21;;;;;;;2.70;1.67;;;;;;;6.80;100.00;95461.06;5096222;28;20206;-59
2024/01/05 07:08:48;;;;;;;3.13;1.63;;;;;;;6.75;100.00;95463.34;5096009;28;20204;-58
2024/01/05 07:11:20;;;;;;;2.03;1.60;;;;;;;6.77;100.00;95461.38;5094411;28;20217;-58
2024/01/05 07:13:47;;;;;;;2.77;2.00;;;;;;;6.76;100.00;95467.63;5094078;28;20186;-58
2024/01/05 07:16:18;;;;;;;1.93;1.67;;;;;;;6.70;100.00;95465.56;5094178;28;20231;-58
2024/01/05 07:18:44;;;;;;;2.90;1.87;;;;;;;6.65;100.00;95467.84;5093930;28;20296;-57
2024/01/05 07:21:11;;;;;;;2.33;1.83;;;;;;;6.74;100.00;95461.69;5094014;28;20216;-58
2024/01/05 07:23:37;;;;;;;17.10;12.37;;;;;;;6.77;100.00;95471.88;5097923;28;20213;-58
2024/01/05 07:26:04;;;;;;;10.10;7.07;;;;;;;6.75;100.00;95467.75;5100414;28;20201;-58
2024/01/05 07:28:31;;;;;;;5.93;4.53;;;;;;;6.75;100.00;95473.84;5101674;28;20198;-57
2024/01/05 07:30:57;;;;;;;3.40;3.10;;;;;;;6.69;100.00;95469.19;5100293;28;20291;-58
2024/01/05 07:33:25;;;;;;;4.27;2.53;;;;;;;6.73;100.00;95467.09;5098358;28;20209;-58
2024/01/05 07:35:52;;;;;;;5.03;2.83;;;;;;;6.71;100.00;95464.59;5099725;28;20222;-58
2024/01/05 07:38:18;;;;;;;3.13;2.17;;;;;;;6.77;100.00;95456.13;5100316;28;20201;-57
2024/01/05 07:40:46;;;;;;;3.07;2.40;;;;;;;6.77;100.00;95461.38;5100806;28;20197;-58
2024/01/05 07:43:13;;;;;;;4.03;1.97;;;;;;;6.75;100.00;95468.59;5100361;28;20228;-58
2024/01/05 07:45:40;;;;;;;4.03;2.40;;;;;;;6.70;100.00;95460.31;5100050;28;21381;-58
2024/01/05 07:48:06;;;;;;;3.57;1.97;;;;;;;6.71;100.00;95456.72;5100211;28;20216;-57
2024/01/05 07:50:34;;;;;;;2.83;2.17;;;;;;;6.74;100.00;95447.72;5100293;28;20300;-59
2024/01/05 07:53:02;;;;;;;2.07;1.77;;;;;;;6.73;100.00;95456.59;5100771;28;20198;-58
2024/01/05 07:55:28;;;;;;;1.87;1.30;;;;;;;6.74;100.00;95445.91;5099273;28;20283;-57
2024/01/05 07:57:55;;;;;;;3.20;1.70;;;;;;;6.76;100.00;95449.25;5100708;28;20587;-58
2024/01/05 08:00:22;;;;;;;1.77;1.47;;;;;;;6.76;100.00;95443.97;5100209;28;20254;-58
2024/01/05 08:02:51;;;;;;;4.23;1.50;;;;;;;6.76;100.00;95440.53;5101270;28;20618;-58
2024/01/05 08:05:17;;;;;;;1.67;1.50;;;;;;;6.79;100.00;95442.84;5102909;28;20213;-59
2024/01/05 08:07:46;;;;;;;2.73;1.50;;;;;;;6.83;100.00;95442.41;5102553;28;20215;-57
2024/01/05 08:10:12;;;;;;;5.17;2.53;;;;;;;6.75;100.00;95431.81;5103309;28;20210;-57
2024/01/05 08:12:43;;;;;;;3.23;2.20;;;;;;;6.83;100.00;95431.06;5102886;28;20197;-58
2024/01/05 08:15:09;;;;;;;4.63;1.90;;;;;;;6.86;100.00;95428.13;5103222;27;20225;-58
2024/01/05 08:17:36;;;;;;;1.63;1.43;;;;;;;6.87;100.00;95435.84;5103481;28;20223;-57
2024/01/05 08:20:04;;;;;;;3.60;1.97;;;;;;;6.84;100.00;95430.91;5101630;28;20260;-59
2024/01/05 08:22:34;;;;;;;4.67;1.77;;;;;;;6.78;100.00;95431.50;5101621;28;20572;-59
2024/01/05 08:25:02;;;;;;;2.50;1.80;;;;;;;6.78;100.00;95435.94;5102621;28;20205;-58
2024/01/05 08:27:29;;;;;;;2.43;1.60;;;;;;;6.83;100.00;95439.78;5102899;28;20284;-58
2024/01/05 08:29:56;;;;;;;2.23;1.97;;;;;;;6.89;100.00;95448.84;5101717;28;20215;-58
2024/01/05 08:32:24;;;;;;;4.70;3.23;;;;;;;6.92;100.00;95438.88;5102541;28;20209;-58
2024/01/05 08:34:51;;;;;;;3.17;2.77;;;;;;;6.89;100.00;95444.44;5102009;27;20230;-57
2024/01/05 08:37:17;;;;;;;4.43;3.20;;;;;;;6.92;100.00;95436.25;5100608;28;20290;-57
2024/01/05 08:39:44;;;;;;;5.90;2.97;;;;;;;6.92;100.00;95436.25;5101579;28;20320;-58
2024/01/05 08:42:13;;;;;;;3.37;2.60;;;;;;;7.05;100.00;95435.06;5102183;28;20285;-59
2024/01/05 08:44:40;;;;;;;3.77;2.83;;;;;;;7.06;100.00;95428.78;5101520;28;20282;-57
2024/01/05 08:47:07;;;;;;;4.80;2.83;;;;;;;7.05;100.00;95427.16;5103914;28;20293;-59
2024/01/05 08:49:34;;;;;;;3.13;2.80;;;;;;;7.08;100.00;95421.59;5101218;28;20205;-58
2024/01/05 08:52:01;;;;;;;3.53;2.87;;;;;;;7.14;100.00;95431.50;5101983;27;20202;-58
2024/01/05 08:54:27;;;;;;;4.80;3.30;;;;;;;7.19;100.00;95439.78;5108344;28;20206;-59
2024/01/05 08:56:54;;;;;;;4.93;3.47;;;;;;;7.19;100.00;95434.53;5110946;28;20238;-57
2024/01/05 08:59:22;;;;;;;4.73;4.30;;;;;;;7.25;100.00;95434.72;5088974;28;20605;-59
2024/01/05 09:01:49;;;;;;;5.70;4.20;;;;;;;7.31;100.00;95435.91;5102637;28;20203;-58
2024/01/05 09:04:15;;;;;;;4.87;3.40;;;;;;;7.38;100.00;95434.31;5101360;28;20257;-58
2024/01/05 09:06:42;;;;;;;4.03;2.70;;;;;;;7.40;100.00;95443.69;5101886;28;20299;-58
2024/01/05 09:09:10;;;;;;;3.70;2.60;;;;;;;7.39;100.00;95441.25;5101242;28;20209;-57
2024/01/05 09:11:39;;;;;;;4.37;2.83;;;;;;;7.37;100.00;95453.69;5101479;28;20538;-58
2024/01/05 09:14:05;;;;;;;4.33;3.00;;;;;;;7.35;100.00;95453.03;5083383;28;21690;-58
2024/01/05 09:16:33;;;;;;;3.63;2.93;;;;;;;7.34;100.00;95459.28;5100318;28;20532;-58
2024/01/05 09:19:00;;;;;;;4.40;3.37;;;;;;;7.26;100.00;95462.66;5102284;28;20205;-58
2024/01/05 09:21:26;;;;;;;6.27;3.83;;;;;;;7.23;100.00;95462.13;5100225;28;20736;-58
2024/01/05 09:23:53;;;;;;;6.80;3.63;;;;;;;7.20;100.00;95462.44;5100116;28;20645;-57
2024/01/05 09:26:20;;;;;;;5.83;3.57;;;;;;;7.23;100.00;95459.50;5101302;28;20203;-57
2024/01/05 09:28:46;;;;;;;7.83;3.40;;;;;;;7.19;100.00;95468.69;5100783;28;20547;-57
2024/01/05 09:31:13;;;;;;;4.43;3.37;;;;;;;7.23;100.00;95464.75;5102057;28;20197;-58
2024/01/05 09:33:41;;;;;;;4.73;3.03;;;;;;;7.23;100.00;95462.97;5101937;28;20550;-58
2024/01/05 09:36:09;;;;;;;9.87;3.80;;;;;;;7.27;100.00;95464.31;5099697;28;20224;-57
2024/01/05 09:38:37;;;;;;;3.80;3.40;;;;;;;7.35;100.00;95474.06;5101299;28;20215;-58
2024/01/05 09:41:05;;;;;;;3.27;2.83;;;;;;;7.37;100.00;95466.84;5099049;28;20229;-58
2024/01/05 09:43:32;;;;;;;5.70;3.37;;;;;;;7.35;100.00;95460.94;5100764;28;20280;-58
2024/01/05 09:45:59;;;;;;;4.03;3.07;;;;;;;7.37;100.00;95470.31;5101437;28;20559;-59
2024/01/05 09:48:27;;;;;;;6.30;3.20;;;;;;;7.44;100.00;95470.53;5101333;28;20205;-58
2024/01/05 09:50:56;;;;;;;4.33;3.20;;;;;;;7.45;100.00;95474.81;5100054;28;20275;-58
2024/01/05 09:53:22;;;;;;;5.50;3.30;;;;;;;7.39;100.00;95464.91;5101185;28;20209;-58
2024/01/05 09:55:50;;;;;;;5.17;3.13;;;;;;;7.44;100.00;95470.53;5100288;28;20221;-57
2024/01/05 09:58:17;;;;;;;3.37;3.07;;;;;;;7.44;100.00;95465.25;5083914;28;20223;-58
2024/01/05 10:00:45;;;;;;;7.50;3.90;;;;;;;7.46;100.00;95464.16;5100335;28;20202;-59
2024/01/05 10:03:14;;;;;;;6.63;3.50;;;;;;;7.48;100.00;95461.34;5098889;28;20677;-58
2024/01/05 10:05:41;;;;;;;3.87;3.40;;;;;;;7.47;100.00;95465.00;5099020;28;20206;-58
2024/01/05 10:08:09;;;;;;;3.93;3.50;;;;;;;7.50;100.00;95459.41;5099092;28;20634;-59
2024/01/05 10:10:47;;;;;;;3.97;3.17;;;;;;;7.53;100.00;95459.09;5100521;28;20720;-58
2024/01/05 10:13:15;;;;;;;5.47;3.50;;;;;;;7.51;100.00;95456.63;5100600;28;20213;-58
2024/01/05 10:15:52;;;;;;;4.73;3.80;;;;;;;7.53;100.00;95455.63;5099222;28;20663;-58
2024/01/05 10:18:19;;;;;;;3.87;3.47;;;;;;;7.48;100.00;95453.47;5101340;28;20197;-58
2024/01/05 10:20:46;;;;;;;5.37;4.10;;;;;;;7.49;100.00;95447.22;5101315;28;20464;-58
2024/01/05 10:23:14;;;;;;;6.37;3.70;;;;;;;7.53;100.00;95448.59;5110626;28;20260;-58
2024/01/05 10:25:40;;;;;;;4.90;3.20;;;;;;;7.51;100.00;95446.09;5116884;28;20190;-58
2024/01/05 10:28:20;;;;;;;4.00;3.40;;;;;;;7.58;100.00;95450.75;5117657;28;20221;-59
2024/01/05 10:30:46;;;;;;;5.07;3.47;;;;;;;7.57;100.00;95435.94;5104853;28;20208;-59
2024/01/05 10:33:13;;;;;;;5.80;3.20;;;;;;;7.51;100.00;95432.09;5101400;28;20198;-59
2024/01/05 10:35:40;;;;;;;4.53;3.57;;;;;;;7.47;100.00;95425.53;5101387;28;20221;-58
2024/01/05 10:38:08;;;;;;;4.80;3.17;;;;;;;7.54;100.00;95428.38;5083371;28;20210;-58
2024/01/05 10:40:39;;;;;;;3.63;3.33;;;;;;;7.61;100.00;95429.41;5100937;28;20197;-58
2024/01/05 10:43:12;;;;;;;5.73;3.70;;;;;;;7.63;100.00;95425.63;5083430;28;20224;-59
2024/01/05 10:45:40;;;;;;;4.97;3.43;;;;;;;7.66;100.00;95427.94;5099817;28;20280;-58
2024/01/05 10:48:09;;;;;;;4.63;3.73;;;;;;;7.74;100.00;95425.38;5099487;28;20197;-59
2024/01/05 10:50:37;;;;;;;6.90;3.90;;;;;;;7.78;100.00;95426.72;5101561;28;20288;-57
2024/01/05 10:53:04;;;;;;;5.33;3.53;;;;;;;7.85;100.00;95426.91;5099366;28;20355;-58
2024/01/05 10:55:33;;;;;;;4.77;4.07;;;;;;;7.85;100.00;95432.19;5101296;28;20239;-58
2024/01/05 10:58:01;;;;;;;7.20;4.57;;;;;;;7.83;100.00;95426.25;5099101;28;20206;-59
2024/01/05 11:00:27;;;;;;;9.13;5.00;;;;;;;7.84;100.00;95412.94;5101258;28;20231;-58
2024/01/05 11:03:06;;;;;;;6.93;4.93;;;;;;;7.87;100.00;95420.50;5103632;28;20238;-58
2024/01/05 11:05:33;;;;;;;6.03;4.30;;;;;;;7.87;100.00;95425.78;5103892;28;20621;-58
2024/01/05 11:08:02;;;;;;;6.03;4.40;;;;;;;7.87;100.00;95414.41;5102470;28;20202;-60
2024/01/05 11:10:44;;;;;;;6.53;4.10;;;;;;;7.92;100.00;95410.34;5101205;28;20198;-58
2024/01/05 11:13:37;;;;;;;5.20;3.70;;;;;;;7.92;100.00;95418.25;5099181;28;21347;-58
2024/01/05 11:16:20;;;;;;;5.90;3.33;;;;;;;7.94;100.00;95418.91;5098996;28;20225;-58
2024/01/05 11:19:01;;;;;;;3.90;3.40;;;;;;;7.93;100.00;95419.91;5100528;28;20604;-58
2024/01/05 11:21:40;;;;;;;4.10;3.17;;;;;;;7.95;100.00;95412.66;5101256;28;20305;-58
2024/01/05 11:24:07;;;;;;;4.90;3.23;;;;;;;7.99;100.00;95414.00;5109009;27;20192;-58
2024/01/05 11:26:36;;;;;;;3.00;2.47;;;;;;;8.03;100.00;95419.78;5109988;28;20202;-59
2024/01/05 11:29:04;;;;;;;2.70;2.40;;;;;;;8.13;100.00;95414.38;5105006;27;20244;-58
2024/01/05 11:31:50;;;;;;;2.73;2.07;;;;;;;8.20;100.00;95410.13;5104240;28;20208;-58
2024/01/05 11:34:31;;;;;;;3.93;1.93;;;;;;;8.22;100.00;95410.81;5103369;28;20210;-58
2024/01/05 11:36:58;;;;;;;2.43;1.80;;;;;;;8.21;100.00;95409.16;5104087;27;20225;-59